Time;durP1;ratioP1;P1;durP2;ratioP2;P2;SDS_P1;SDS_P2;PMS_P1;PMS_P2;Temp;Humidity;BMP_temperature;BMP_pressure;BME280_temperature;BME280_humidity;BME280_pressure;Samples;Min_cycle;Max_cycle;Signal;HPM_P1;HPM_P2
2022/11/12 00:00:38;;;;;;;16.95;4.78;;;;;;;;;;5038394;28;20048;-69
2022/11/12 00:03:12;;;;;;;16.35;5.28;;;;;;;;;;5036581;28;20132;-68
2022/11/12 00:05:38;;;;;;;16.13;4.45;;;;;;;;;;5042339;28;20052;-70
2022/11/12 00:08:04;;;;;;;14.00;4.95;;;;;;;;;;5019417;28;20056;-69
2022/11/12 00:10:31;;;;;;;12.60;4.50;;;;;;;;;;5036916;28;20049;-71
2022/11/12 00:12:57;;;;;;;15.80;4.95;;;;;;;;;;5041097;28;20582;-68
2022/11/12 00:15:23;;;;;;;14.32;4.80;;;;;;;;;;5036899;28;20128;-70
2022/11/12 00:17:49;;;;;;;19.38;5.05;;;;;;;;;;5037220;28;20426;-70
2022/11/12 00:20:15;;;;;;;16.05;5.00;;;;;;;;;;5041439;28;20040;-65
2022/11/12 00:22:41;;;;;;;21.30;4.65;;;;;;;;;;5037445;28;20045;-66
2022/11/12 00:25:07;;;;;;;22.25;4.65;;;;;;;;;;5038155;28;20067;-65
2022/11/12 00:27:34;;;;;;;15.52;5.22;;;;;;;;;;5041969;28;20060;-69
2022/11/12 00:29:59;;;;;;;17.35;5.25;;;;;;;;;;5045171;28;20049;-69
2022/11/12 00:32:26;;;;;;;19.92;5.10;;;;;;;;;;5043833;28;20047;-67
2022/11/12 00:34:52;;;;;;;15.48;4.47;;;;;;;;;;5041469;28;20063;-65
2022/11/12 00:37:17;;;;;;;15.48;4.95;;;;;;;;;;5043455;28;20486;-70
2022/11/12 00:39:44;;;;;;;20.67;5.47;;;;;;;;;;5042046;28;20050;-66
2022/11/12 00:42:10;;;;;;;16.05;5.03;;;;;;;;;;5044752;28;20128;-68
2022/11/12 00:44:35;;;;;;;26.30;5.72;;;;;;;;;;5043709;28;20143;-70
2022/11/12 00:47:02;;;;;;;26.00;5.55;;;;;;;;;;5042671;28;20068;-68
2022/11/12 00:49:28;;;;;;;19.58;5.30;;;;;;;;;;5045282;28;20045;-65
2022/11/12 00:51:54;;;;;;;17.63;5.47;;;;;;;;;;5044961;28;20041;-66
2022/11/12 00:54:20;;;;;;;18.52;5.20;;;;;;;;;;5044819;28;20041;-65
2022/11/12 00:56:47;;;;;;;15.65;5.75;;;;;;;;;;5044277;28;20048;-65
2022/11/12 00:59:13;;;;;;;30.13;6.78;;;;;;;;;;5038223;28;20057;-68
2022/11/12 01:01:40;;;;;;;17.63;5.63;;;;;;;;;;5041601;28;20064;-63
2022/11/12 01:04:06;;;;;;;17.73;5.75;;;;;;;;;;5043457;28;20057;-65
2022/11/12 01:06:32;;;;;;;22.98;6.47;;;;;;;;;;5035530;28;20340;-66
2022/11/12 01:08:58;;;;;;;19.58;6.38;;;;;;;;;;5033027;28;20048;-69
2022/11/12 01:11:28;;;;;;;12.82;5.18;;;;;;;;;;5039592;28;20048;-72
2022/11/12 01:13:57;;;;;;;20.35;6.00;;;;;;;;;;5039738;28;20053;-67
2022/11/12 01:16:26;;;;;;;21.02;6.40;;;;;;;;;;5036259;28;20131;-65
2022/11/12 01:18:55;;;;;;;20.30;6.43;;;;;;;;;;5034687;28;20056;-70
2022/11/12 01:21:22;;;;;;;24.17;7.20;;;;;;;;;;5042923;28;20184;-71
2022/11/12 01:23:48;;;;;;;30.00;6.70;;;;;;;;;;5028141;28;20055;-70
2022/11/12 01:26:17;;;;;;;22.15;6.97;;;;;;;;;;5022920;28;20265;-69
2022/11/12 01:28:43;;;;;;;27.33;6.50;;;;;;;;;;5035397;28;20072;-66
2022/11/12 01:31:17;;;;;;;25.27;6.97;;;;;;;;;;5023841;28;20358;-66
2022/11/12 01:33:45;;;;;;;27.10;6.43;;;;;;;;;;5043474;28;20057;-66
2022/11/12 01:36:13;;;;;;;27.58;7.80;;;;;;;;;;5048371;28;20049;-68
2022/11/12 01:38:40;;;;;;;28.67;6.50;;;;;;;;;;5033279;28;20049;-65
2022/11/12 01:41:09;;;;;;;22.45;6.85;;;;;;;;;;5038343;28;20053;-66
2022/11/12 01:43:34;;;;;;;22.50;6.10;;;;;;;;;;5037458;28;20060;-64
2022/11/12 01:46:03;;;;;;;26.70;6.72;;;;;;;;;;5036839;28;20502;-65
2022/11/12 01:48:38;;;;;;;17.35;6.47;;;;;;;;;;5045658;28;20510;-66
2022/11/12 01:51:06;;;;;;;22.92;6.63;;;;;;;;;;5049031;28;20651;-67
2022/11/12 01:53:36;;;;;;;28.85;6.88;;;;;;;;;;5040715;28;20048;-65
2022/11/12 01:56:04;;;;;;;19.17;6.82;;;;;;;;;;5043973;28;20048;-65
2022/11/12 01:58:31;;;;;;;25.42;7.00;;;;;;;;;;5045523;28;20796;-68
2022/11/12 02:00:59;;;;;;;21.40;7.15;;;;;;;;;;5029272;28;20049;-68
2022/11/12 02:03:25;;;;;;;28.05;7.43;;;;;;;;;;5045959;28;20324;-66
2022/11/12 02:06:03;;;;;;;25.73;7.65;;;;;;;;;;5043719;28;20037;-64
2022/11/12 02:08:31;;;;;;;25.50;8.20;;;;;;;;;;5036673;28;20766;-67
2022/11/12 02:10:57;;;;;;;31.23;7.65;;;;;;;;;;5047100;28;20045;-69
2022/11/12 02:16:09;;;;;;;18.63;6.63;;;;;;;;;;5043312;28;20094;-68
2022/11/12 02:18:35;;;;;;;37.20;8.18;;;;;;;;;;5038901;28;20498;-69
2022/11/12 02:21:06;;;;;;;24.00;7.15;;;;;;;;;;5034699;28;20052;-68
2022/11/12 02:23:32;;;;;;;33.85;7.32;;;;;;;;;;5033159;28;20060;-68
2022/11/12 02:25:59;;;;;;;25.25;6.55;;;;;;;;;;5044867;28;20123;-68
2022/11/12 02:28:27;;;;;;;32.80;6.57;;;;;;;;;;5037946;28;20045;-72
2022/11/12 02:30:53;;;;;;;25.15;7.75;;;;;;;;;;5037664;28;20221;-65
2022/11/12 02:33:19;;;;;;;22.90;6.72;;;;;;;;;;5051498;28;20047;-69
2022/11/12 02:35:45;;;;;;;22.00;6.43;;;;;;;;;;5032387;28;20041;-68
2022/11/12 02:38:10;;;;;;;30.13;7.25;;;;;;;;;;5031739;28;20682;-64
2022/11/12 02:40:37;;;;;;;22.83;7.07;;;;;;;;;;5044260;28;20515;-66
2022/11/12 02:43:02;;;;;;;30.23;6.43;;;;;;;;;;5031451;28;20202;-70
2022/11/12 02:45:30;;;;;;;31.95;6.60;;;;;;;;;;5026895;28;20087;-68
2022/11/12 02:47:56;;;;;;;22.15;6.82;;;;;;;;;;5026475;28;20067;-69
2022/11/12 02:50:23;;;;;;;25.35;6.55;;;;;;;;;;5037550;28;20068;-65
2022/11/12 02:52:49;;;;;;;24.00;7.70;;;;;;;;;;5040154;28;20045;-71
2022/11/12 02:55:15;;;;;;;22.58;6.97;;;;;;;;;;5034551;28;20053;-67
2022/11/12 02:57:41;;;;;;;27.45;5.85;;;;;;;;;;5039324;28;20045;-65
2022/11/12 03:00:11;;;;;;;30.27;5.53;;;;;;;;;;5024878;28;21076;-69
2022/11/12 03:02:41;;;;;;;22.23;4.28;;;;;;;;;;5040941;28;20041;-72
2022/11/12 03:05:09;;;;;;;15.52;3.75;;;;;;;;;;5046004;28;20056;-70
2022/11/12 03:07:35;;;;;;;18.55;3.97;;;;;;;;;;5027881;28;20415;-68
2022/11/12 03:10:01;;;;;;;14.13;3.65;;;;;;;;;;5044671;28;20040;-69
2022/11/12 03:12:30;;;;;;;21.35;4.43;;;;;;;;;;5037539;28;20057;-70
2022/11/12 03:14:56;;;;;;;16.83;3.78;;;;;;;;;;5037421;28;20416;-66
2022/11/12 03:17:22;;;;;;;12.57;3.85;;;;;;;;;;5031992;28;20242;-67
2022/11/12 03:19:48;;;;;;;15.10;3.83;;;;;;;;;;5026940;28;20041;-64
2022/11/12 03:22:14;;;;;;;18.52;4.18;;;;;;;;;;5041380;28;20048;-66
2022/11/12 03:24:40;;;;;;;12.40;3.88;;;;;;;;;;5045849;28;20067;-64
2022/11/12 03:27:06;;;;;;;12.75;3.72;;;;;;;;;;5047344;28;20425;-65
2022/11/12 03:29:32;;;;;;;13.98;3.35;;;;;;;;;;5045642;28;20037;-64
2022/11/12 03:31:58;;;;;;;11.93;2.85;;;;;;;;;;5022233;28;20063;-68
2022/11/12 03:34:23;;;;;;;11.77;3.55;;;;;;;;;;5022648;28;20041;-68
2022/11/12 03:36:50;;;;;;;15.50;3.53;;;;;;;;;;5022715;28;20126;-72
2022/11/12 03:39:15;;;;;;;12.40;3.03;;;;;;;;;;5031360;28;20041;-66
2022/11/12 03:41:41;;;;;;;20.95;3.42;;;;;;;;;;5045382;28;20045;-65
2022/11/12 03:44:07;;;;;;;15.27;3.30;;;;;;;;;;5025559;28;20049;-65
2022/11/12 03:46:33;;;;;;;16.45;3.20;;;;;;;;;;5036906;28;20083;-66
2022/11/12 03:49:01;;;;;;;13.68;3.97;;;;;;;;;;5038130;28;20732;-65
2022/11/12 03:51:27;;;;;;;13.13;3.38;;;;;;;;;;5040441;28;20049;-66
2022/11/12 03:53:53;;;;;;;12.77;3.53;;;;;;;;;;5039505;28;20056;-68
2022/11/12 03:56:19;;;;;;;11.05;3.75;;;;;;;;;;5032804;28;20049;-64
2022/11/12 03:58:44;;;;;;;15.68;3.47;;;;;;;;;;5041536;28;20414;-66
2022/11/12 04:01:10;;;;;;;22.70;4.10;;;;;;;;;;5033256;28;20049;-70
2022/11/12 04:03:36;;;;;;;15.32;3.92;;;;;;;;;;5035750;28;20392;-65
2022/11/12 04:08:46;;;;;;;17.85;3.85;;;;;;;;;;5026239;28;20045;-67
2022/11/12 04:11:15;;;;;;;14.65;3.70;;;;;;;;;;5038905;28;20045;-66
2022/11/12 04:13:44;;;;;;;8.43;3.60;;;;;;;;;;5008005;28;20211;-71
2022/11/12 04:22:02;;;;;;;13.48;4.15;;;;;;;;;;5039213;28;20049;-65
2022/11/12 04:27:17;;;;;;;14.13;3.83;;;;;;;;;;5034982;28;20057;-65
2022/11/12 04:32:31;;;;;;;11.95;3.22;;;;;;;;;;5041885;28;20516;-69
2022/11/12 04:34:57;;;;;;;13.48;3.60;;;;;;;;;;5023433;28;20520;-64
2022/11/12 04:37:25;;;;;;;17.73;4.05;;;;;;;;;;5031865;28;20084;-68
2022/11/12 04:39:52;;;;;;;12.85;4.30;;;;;;;;;;5027485;28;20569;-66
2022/11/12 04:45:06;;;;;;;12.32;3.72;;;;;;;;;;5033601;28;20036;-65
2022/11/12 04:47:39;;;;;;;13.95;3.47;;;;;;;;;;5023979;28;20442;-67
2022/11/12 04:50:12;;;;;;;14.45;3.50;;;;;;;;;;5018932;28;20468;-68
2022/11/12 04:52:37;;;;;;;12.90;3.70;;;;;;;;;;5032083;28;20048;-67
2022/11/12 04:55:04;;;;;;;10.75;3.60;;;;;;;;;;5033812;28;20071;-69
2022/11/12 04:57:30;;;;;;;14.73;3.50;;;;;;;;;;5033891;28;20504;-67
2022/11/12 04:59:56;;;;;;;14.93;4.00;;;;;;;;;;5024812;28;20048;-71
2022/11/12 05:02:22;;;;;;;13.18;3.63;;;;;;;;;;5020637;28;20430;-70
2022/11/12 05:04:48;;;;;;;19.65;4.22;;;;;;;;;;5024410;28;20051;-70
2022/11/12 05:07:14;;;;;;;12.73;3.42;;;;;;;;;;5012407;28;20053;-65
2022/11/12 05:09:40;;;;;;;17.42;3.63;;;;;;;;;;5038543;28;20088;-65
2022/11/12 05:12:06;;;;;;;13.43;3.45;;;;;;;;;;5036890;28;20052;-67
2022/11/12 05:14:32;;;;;;;12.95;4.03;;;;;;;;;;5037557;28;20041;-68
2022/11/12 05:16:59;;;;;;;16.92;3.83;;;;;;;;;;5035694;28;20053;-66
2022/11/12 05:19:25;;;;;;;22.25;4.00;;;;;;;;;;5040590;28;20544;-68
2022/11/12 05:22:06;;;;;;;18.00;4.22;;;;;;;;;;5041368;28;20222;-69
2022/11/12 05:24:37;;;;;;;21.02;5.25;;;;;;;;;;5035853;28;20048;-69
2022/11/12 05:27:07;;;;;;;22.38;4.38;;;;;;;;;;5044944;28;20458;-64
2022/11/12 05:29:33;;;;;;;13.70;3.42;;;;;;;;;;5026695;28;20052;-67
2022/11/12 05:31:59;;;;;;;9.23;3.35;;;;;;;;;;5043123;28;20094;-68
2022/11/12 05:34:25;;;;;;;13.02;3.35;;;;;;;;;;5041096;28;20049;-70
2022/11/12 05:36:51;;;;;;;9.98;3.55;;;;;;;;;;5039304;28;20045;-64
2022/11/12 05:39:17;;;;;;;14.77;3.53;;;;;;;;;;5040689;28;20041;-66
2022/11/12 05:41:42;;;;;;;12.25;3.30;;;;;;;;;;5046848;28;20387;-66
2022/11/12 05:44:08;;;;;;;9.85;3.53;;;;;;;;;;5042427;28;20202;-64
2022/11/12 05:46:34;;;;;;;14.00;4.85;;;;;;;;;;5030513;28;20550;-70
2022/11/12 05:49:00;;;;;;;14.13;3.55;;;;;;;;;;5043741;28;20387;-68
2022/11/12 05:51:26;;;;;;;14.93;3.60;;;;;;;;;;5042763;28;20045;-66
2022/11/12 05:53:52;;;;;;;13.23;3.75;;;;;;;;;;5023788;28;20099;-65
2022/11/12 05:56:17;;;;;;;9.68;3.25;;;;;;;;;;5043208;28;20044;-67
2022/11/12 05:58:43;;;;;;;14.23;3.55;;;;;;;;;;5046469;28;20048;-67
2022/11/12 06:01:09;;;;;;;15.95;4.30;;;;;;;;;;5038447;28;20053;-68
2022/11/12 06:03:35;;;;;;;12.68;3.30;;;;;;;;;;5053036;28;20037;-68
2022/11/12 06:06:01;;;;;;;13.02;3.67;;;;;;;;;;5029305;28;20056;-69
2022/11/12 06:08:27;;;;;;;17.55;4.22;;;;;;;;;;5026837;28;20130;-67
2022/11/12 06:10:54;;;;;;;10.88;3.97;;;;;;;;;;5023602;28;20037;-65
2022/11/12 06:13:22;;;;;;;19.73;5.13;;;;;;;;;;5025211;28;20972;-66
2022/11/12 06:15:48;;;;;;;16.23;5.47;;;;;;;;;;5028310;28;20405;-70
2022/11/12 06:18:14;;;;;;;22.95;5.70;;;;;;;;;;5021358;28;20057;-68
2022/11/12 06:20:40;;;;;;;18.10;4.05;;;;;;;;;;5038912;28;20119;-64
2022/11/12 06:23:06;;;;;;;21.83;4.55;;;;;;;;;;5037044;28;20053;-64
2022/11/12 06:25:32;;;;;;;15.00;3.80;;;;;;;;;;5041871;28;20064;-66
2022/11/12 06:27:57;;;;;;;19.20;4.60;;;;;;;;;;5043890;28;20042;-65
2022/11/12 06:30:23;;;;;;;12.13;3.15;;;;;;;;;;5047017;28;20053;-66
2022/11/12 06:32:50;;;;;;;18.55;4.30;;;;;;;;;;5043883;28;20068;-65
2022/11/12 06:35:17;;;;;;;23.73;4.22;;;;;;;;;;5036530;28;20063;-67
2022/11/12 06:37:46;;;;;;;20.27;4.70;;;;;;;;;;5041524;28;20045;-70
2022/11/12 06:40:12;;;;;;;18.40;3.95;;;;;;;;;;5043209;28;20057;-68
2022/11/12 06:42:38;;;;;;;16.75;4.32;;;;;;;;;;5041480;28;20520;-62
2022/11/12 06:45:05;;;;;;;23.45;5.30;;;;;;;;;;5039748;28;20092;-66
2022/11/12 06:47:30;;;;;;;14.50;3.70;;;;;;;;;;5037875;28;20045;-69
2022/11/12 06:49:56;;;;;;;12.45;3.95;;;;;;;;;;5044769;28;20045;-71
2022/11/12 06:52:22;;;;;;;17.27;4.05;;;;;;;;;;5025721;28;20435;-70
2022/11/12 06:54:48;;;;;;;15.05;3.58;;;;;;;;;;5026915;28;20469;-65
2022/11/12 06:57:14;;;;;;;19.55;4.07;;;;;;;;;;5042584;28;20041;-66
2022/11/12 06:59:40;;;;;;;17.45;3.53;;;;;;;;;;5041714;28;20517;-65
2022/11/12 07:02:05;;;;;;;16.92;3.75;;;;;;;;;;5037433;28;20054;-65
2022/11/12 07:04:31;;;;;;;14.70;4.15;;;;;;;;;;5037621;28;20053;-67
2022/11/12 07:06:57;;;;;;;18.00;4.18;;;;;;;;;;5042867;28;20064;-65
2022/11/12 07:09:23;;;;;;;14.13;4.10;;;;;;;;;;5043704;28;20044;-70
2022/11/12 07:11:49;;;;;;;11.90;3.83;;;;;;;;;;5030892;28;20059;-67
2022/11/12 07:14:15;;;;;;;17.67;4.45;;;;;;;;;;5038012;28;20061;-71
2022/11/12 07:16:41;;;;;;;23.80;4.40;;;;;;;;;;5037398;28;20041;-65
2022/11/12 07:19:07;;;;;;;19.98;4.38;;;;;;;;;;5040628;28;20083;-70
2022/11/12 07:21:33;;;;;;;18.13;4.40;;;;;;;;;;5041282;28;20433;-69
2022/11/12 07:23:59;;;;;;;21.75;5.10;;;;;;;;;;5031609;28;20438;-69
2022/11/12 07:26:26;;;;;;;20.17;4.32;;;;;;;;;;5036938;28;20118;-66
2022/11/12 07:28:55;;;;;;;21.25;5.28;;;;;;;;;;5031980;28;20049;-67
2022/11/12 07:31:21;;;;;;;22.60;4.38;;;;;;;;;;5040735;28;20037;-68
2022/11/12 07:33:48;;;;;;;22.23;4.63;;;;;;;;;;5045149;28;20502;-65
2022/11/12 07:36:16;;;;;;;17.20;4.00;;;;;;;;;;5030938;28;20045;-70
2022/11/12 07:38:44;;;;;;;21.00;5.13;;;;;;;;;;5044924;28;20048;-67
2022/11/12 07:41:28;;;;;;;14.88;3.75;;;;;;;;;;5024419;28;20057;-69
2022/11/12 07:43:54;;;;;;;25.27;4.97;;;;;;;;;;5041380;28;20033;-68
2022/11/12 07:46:23;;;;;;;20.75;5.15;;;;;;;;;;5043724;28;20309;-65
2022/11/12 07:48:49;;;;;;;20.15;5.07;;;;;;;;;;5043264;28;20051;-70
2022/11/12 07:51:18;;;;;;;23.30;5.47;;;;;;;;;;5042086;28;20087;-65
2022/11/12 07:53:45;;;;;;;29.75;5.25;;;;;;;;;;5031656;28;20557;-69
2022/11/12 07:56:14;;;;;;;24.65;6.47;;;;;;;;;;5029243;28;20045;-71
2022/11/12 07:58:40;;;;;;;28.30;6.30;;;;;;;;;;5026869;28;20076;-69
2022/11/12 08:01:30;;;;;;;25.50;5.93;;;;;;;;;;5041112;28;20118;-67
2022/11/12 08:04:01;;;;;;;31.58;5.53;;;;;;;;;;5027940;28;20485;-69
2022/11/12 08:06:28;;;;;;;27.55;4.60;;;;;;;;;;5046734;28;20525;-69
2022/11/12 08:08:55;;;;;;;25.88;5.00;;;;;;;;;;5050169;28;20438;-67
2022/11/12 08:11:21;;;;;;;28.23;6.15;;;;;;;;;;5044866;28;21605;-68
2022/11/12 08:13:48;;;;;;;25.65;6.15;;;;;;;;;;5043668;28;20053;-65
2022/11/12 08:16:14;;;;;;;23.10;4.75;;;;;;;;;;5043472;28;20055;-65
2022/11/12 08:18:42;;;;;;;26.95;6.32;;;;;;;;;;5049067;28;20203;-69
2022/11/12 08:21:11;;;;;;;29.77;6.10;;;;;;;;;;5045698;28;20041;-67
2022/11/12 08:23:37;;;;;;;24.45;5.60;;;;;;;;;;5043681;28;20041;-69
2022/11/12 08:26:05;;;;;;;33.35;7.00;;;;;;;;;;5050115;28;20473;-69
2022/11/12 08:28:34;;;;;;;26.75;5.00;;;;;;;;;;5042765;28;20186;-70
2022/11/12 08:31:09;;;;;;;17.30;4.63;;;;;;;;;;5054429;28;20048;-74
2022/11/12 08:33:36;;;;;;;22.20;5.53;;;;;;;;;;5048275;28;20076;-71
2022/11/12 08:36:06;;;;;;;24.88;5.10;;;;;;;;;;5042185;28;20091;-69
2022/11/12 08:38:33;;;;;;;34.40;6.22;;;;;;;;;;5048363;28;21006;-74
2022/11/12 08:41:05;;;;;;;21.15;4.18;;;;;;;;;;5047585;28;20417;-72
2022/11/12 08:43:31;;;;;;;21.65;4.65;;;;;;;;;;5027487;28;20045;-67
2022/11/12 08:45:58;;;;;;;27.42;5.38;;;;;;;;;;5044650;28;20066;-73
2022/11/12 08:48:25;;;;;;;29.83;5.60;;;;;;;;;;5051133;28;20512;-73
2022/11/12 08:50:51;;;;;;;24.92;5.30;;;;;;;;;;5046783;28;20049;-67
2022/11/12 08:53:17;;;;;;;26.42;5.80;;;;;;;;;;5047810;28;20132;-68
2022/11/12 08:55:43;;;;;;;23.48;5.40;;;;;;;;;;5040508;28;20059;-71
2022/11/12 08:58:09;;;;;;;22.92;5.15;;;;;;;;;;5042872;28;20049;-70
2022/11/12 09:00:41;;;;;;;23.92;5.40;;;;;;;;;;5042883;28;20070;-65
2022/11/12 09:03:12;;;;;;;29.20;5.53;;;;;;;;;;5042768;28;20499;-67
2022/11/12 09:05:37;;;;;;;22.88;5.40;;;;;;;;;;5025891;28;20040;-69
2022/11/12 09:08:06;;;;;;;26.92;4.65;;;;;;;;;;5037338;28;20053;-66
2022/11/12 09:10:32;;;;;;;20.27;4.65;;;;;;;;;;5038274;28;20772;-67
2022/11/12 09:12:59;;;;;;;29.85;5.38;;;;;;;;;;5041793;28;20058;-69
2022/11/12 09:15:26;;;;;;;21.70;4.68;;;;;;;;;;5038927;28;20116;-71
2022/11/12 09:18:00;;;;;;;19.77;4.97;;;;;;;;;;5045058;28;20053;-66
2022/11/12 09:20:28;;;;;;;25.02;4.72;;;;;;;;;;5022801;28;20056;-67
2022/11/12 09:23:01;;;;;;;24.38;4.70;;;;;;;;;;5030972;28;20045;-70
2022/11/12 09:25:27;;;;;;;27.40;5.80;;;;;;;;;;5038955;28;20045;-65
2022/11/12 09:27:53;;;;;;;22.58;4.70;;;;;;;;;;5041516;28;20480;-70
2022/11/12 09:30:19;;;;;;;21.67;5.57;;;;;;;;;;5030212;28;20052;-74
2022/11/12 09:32:45;;;;;;;28.55;5.32;;;;;;;;;;5038962;28;20045;-73
2022/11/12 09:35:11;;;;;;;21.13;5.10;;;;;;;;;;5035845;28;20045;-71
2022/11/12 09:37:38;;;;;;;31.15;5.88;;;;;;;;;;5041112;28;20095;-65
2022/11/12 09:40:05;;;;;;;30.25;6.10;;;;;;;;;;5030985;28;20198;-66
2022/11/12 09:42:34;;;;;;;23.80;5.75;;;;;;;;;;5034780;28;20394;-74
2022/11/12 09:45:12;;;;;;;33.95;5.35;;;;;;;;;;5020211;28;20198;-69
2022/11/12 09:47:45;;;;;;;24.83;4.85;;;;;;;;;;5029173;28;20056;-71
2022/11/12 09:50:20;;;;;;;20.90;4.95;;;;;;;;;;5028862;28;20568;-69
2022/11/12 09:52:51;;;;;;;21.10;5.80;;;;;;;;;;5039024;28;20498;-70
2022/11/12 09:55:27;;;;;;;17.65;4.55;;;;;;;;;;5039825;28;20122;-67
2022/11/12 09:57:53;;;;;;;25.90;5.38;;;;;;;;;;5043968;28;20040;-65
2022/11/12 10:00:20;;;;;;;31.17;4.97;;;;;;;;;;5040536;28;20068;-67
2022/11/12 10:03:10;;;;;;;24.17;4.88;;;;;;;;;;5040326;28;20106;-71
2022/11/12 10:05:47;;;;;;;19.33;4.47;;;;;;;;;;5038172;28;20061;-70
2022/11/12 10:08:27;;;;;;;24.65;5.00;;;;;;;;;;5042909;28;20402;-65
2022/11/12 10:11:09;;;;;;;23.50;5.47;;;;;;;;;;5038275;28;20045;-71
2022/11/12 10:13:48;;;;;;;22.48;5.28;;;;;;;;;;5043572;28;20514;-65
2022/11/12 10:16:41;;;;;;;25.20;6.03;;;;;;;;;;5028059;28;20077;-70
2022/11/12 10:19:13;;;;;;;26.30;5.63;;;;;;;;;;5042528;28;20107;-66
2022/11/12 10:21:57;;;;;;;28.42;6.35;;;;;;;;;;5035454;28;20194;-77
2022/11/12 10:24:28;;;;;;;30.85;5.85;;;;;;;;;;5025652;28;20061;-68
2022/11/12 10:26:56;;;;;;;28.40;4.60;;;;;;;;;;5037913;28;20046;-66
2022/11/12 10:29:39;;;;;;;21.30;5.00;;;;;;;;;;5041628;28;20498;-70
2022/11/12 10:32:14;;;;;;;28.10;6.20;;;;;;;;;;5043206;28;20049;-70
2022/11/12 10:34:40;;;;;;;27.48;5.15;;;;;;;;;;5041630;28;20056;-72
2022/11/12 10:37:34;;;;;;;22.63;4.55;;;;;;;;;;5041185;28;20056;-67
2022/11/12 10:40:25;;;;;;;28.47;5.63;;;;;;;;;;5032202;28;20056;-70
2022/11/12 10:43:14;;;;;;;24.88;5.53;;;;;;;;;;5044720;28;20133;-70
2022/11/12 10:45:41;;;;;;;27.13;5.80;;;;;;;;;;5044757;28;20057;-69
2022/11/12 10:48:27;;;;;;;31.67;5.45;;;;;;;;;;5044130;28;20072;-69
2022/11/12 10:50:54;;;;;;;35.95;5.68;;;;;;;;;;5048044;28;20044;-67
2022/11/12 10:53:33;;;;;;;24.33;4.72;;;;;;;;;;5045381;28;20138;-70
2022/11/12 10:56:01;;;;;;;27.13;4.75;;;;;;;;;;5037423;28;20130;-69
2022/11/12 10:58:27;;;;;;;24.20;5.30;;;;;;;;;;5018259;28;20564;-69
2022/11/12 11:00:55;;;;;;;27.38;5.97;;;;;;;;;;5023572;28;20053;-69
2022/11/12 11:03:33;;;;;;;26.10;5.07;;;;;;;;;;5033372;28;20607;-70
2022/11/12 11:06:00;;;;;;;29.35;6.00;;;;;;;;;;5041086;28;20052;-70
2022/11/12 11:08:37;;;;;;;23.77;5.78;;;;;;;;;;5037141;28;20053;-72
2022/11/12 11:11:28;;;;;;;27.33;5.57;;;;;;;;;;5025911;28;20033;-73
2022/11/12 11:13:56;;;;;;;27.25;6.13;;;;;;;;;;5017866;28;20056;-74
2022/11/12 11:16:27;;;;;;;21.38;4.70;;;;;;;;;;5031193;28;20148;-70
2022/11/12 11:18:57;;;;;;;16.92;3.50;;;;;;;;;;5033164;28;20075;-68
2022/11/12 11:21:41;;;;;;;13.00;4.00;;;;;;;;;;5038507;28;20542;-69
2022/11/12 11:24:25;;;;;;;;;;;;;;;;;;5040315;28;20395;-70
2022/11/12 11:27:11;;;;;;;15.18;4.05;;;;;;;;;;5041825;28;20036;-68
2022/11/12 11:30:02;;;;;;;15.75;4.03;;;;;;;;;;5040953;28;20041;-70
2022/11/12 11:32:45;;;;;;;18.17;3.83;;;;;;;;;;5034804;28;20141;-73
2022/11/12 11:35:20;;;;;;;16.25;3.95;;;;;;;;;;5042999;28;20498;-71
2022/11/12 11:37:52;;;;;;;13.98;4.05;;;;;;;;;;5033301;28;20119;-68
2022/11/12 11:40:36;;;;;;;12.63;3.97;;;;;;;;;;5024602;28;20509;-73
2022/11/12 11:43:20;;;;;;;20.33;4.13;;;;;;;;;;5016332;28;20102;-70
2022/11/12 11:46:05;;;;;;;15.73;4.25;;;;;;;;;;5025233;28;20049;-69
2022/11/12 11:48:46;;;;;;;12.48;4.22;;;;;;;;;;5015356;28;20049;-67
2022/11/12 11:52:06;;;;;;;13.88;4.22;;;;;;;;;;5038348;28;20067;-67
2022/11/12 11:54:49;;;;;;;10.35;2.72;;;;;;;;;;4992989;28;20054;-66
2022/11/12 11:57:20;;;;;;;8.07;3.28;;;;;;;;;;4997123;28;20511;-67
2022/11/12 12:00:01;;;;;;;9.13;2.65;;;;;;;;;;4993764;28;20046;-66
2022/11/12 12:02:48;;;;;;;12.63;2.65;;;;;;;;;;4976073;28;20057;-66
2022/11/12 12:05:41;;;;;;;13.13;3.60;;;;;;;;;;4973796;28;20116;-68
2022/11/12 12:08:13;;;;;;;10.50;3.10;;;;;;;;;;4988386;28;20133;-67
2022/11/12 12:10:57;;;;;;;5.65;2.70;;;;;;;;;;4989984;28;20077;-70
2022/11/12 12:13:29;;;;;;;9.05;3.40;;;;;;;;;;4975216;28;20076;-69
2022/11/12 12:16:23;;;;;;;14.20;3.40;;;;;;;;;;4960479;28;20062;-66
2022/11/12 12:18:55;;;;;;;7.88;3.10;;;;;;;;;;4995060;28;20058;-67
2022/11/12 12:21:24;;;;;;;11.70;3.63;;;;;;;;;;4988726;28;20042;-69
2022/11/12 12:24:14;;;;;;;14.60;3.28;;;;;;;;;;4993161;28;20047;-69
2022/11/12 12:26:48;;;;;;;9.10;3.20;;;;;;;;;;4989221;28;20121;-68
2022/11/12 12:29:30;;;;;;;10.27;3.25;;;;;;;;;;5023969;28;20048;-69
2022/11/12 12:32:04;;;;;;;11.30;3.30;;;;;;;;;;5036355;28;20076;-70
2022/11/12 12:34:32;;;;;;;13.32;3.15;;;;;;;;;;5019279;28;20056;-65
2022/11/12 12:37:09;;;;;;;5.70;2.35;;;;;;;;;;5038083;28;20063;-66
2022/11/12 12:40:18;;;;;;;10.45;3.13;;;;;;;;;;5026034;28;20075;-70
2022/11/12 12:42:53;;;;;;;8.23;3.08;;;;;;;;;;4945179;28;20058;-68
2022/11/12 12:45:40;;;;;;;11.57;3.10;;;;;;;;;;4949924;28;20061;-68
2022/11/12 12:48:21;;;;;;;11.70;3.10;;;;;;;;;;4945925;28;20138;-65
2022/11/12 12:50:50;;;;;;;9.63;3.25;;;;;;;;;;4955139;28;20058;-69
2022/11/12 12:53:24;;;;;;;12.05;3.78;;;;;;;;;;4949838;28;20106;-70
2022/11/12 12:55:52;;;;;;;11.40;3.47;;;;;;;;;;4961963;28;20050;-70
2022/11/12 12:58:43;;;;;;;10.90;3.40;;;;;;;;;;4962748;28;20407;-67
2022/11/12 13:01:23;;;;;;;11.13;3.90;;;;;;;;;;4947237;28;20058;-70
2022/11/12 13:03:52;;;;;;;10.00;3.47;;;;;;;;;;4961256;28;20421;-67
2022/11/12 13:06:23;;;;;;;12.25;4.15;;;;;;;;;;4940865;28;20693;-67
2022/11/12 13:09:19;;;;;;;9.73;3.30;;;;;;;;;;4946190;28;20106;-68
2022/11/12 13:14:33;;;;;;;15.18;3.75;;;;;;;;;;4962606;28;20043;-68
2022/11/12 13:17:05;;;;;;;11.65;3.35;;;;;;;;;;5009649;28;20490;-67
2022/11/12 13:19:46;;;;;;;15.25;4.00;;;;;;;;;;5028854;28;20049;-65
2022/11/12 13:22:16;;;;;;;11.70;4.13;;;;;;;;;;5039008;28;20482;-68
2022/11/12 13:25:06;;;;;;;11.75;4.10;;;;;;;;;;5031053;28;20127;-68
2022/11/12 13:27:44;;;;;;;9.02;4.30;;;;;;;;;;5043141;28;20319;-67
2022/11/12 13:30:14;;;;;;;16.90;4.35;;;;;;;;;;5022155;28;20049;-67
2022/11/12 13:32:53;;;;;;;11.00;3.88;;;;;;;;;;5044231;28;20442;-67
2022/11/12 13:35:22;;;;;;;18.58;4.22;;;;;;;;;;5045798;28;20041;-68
2022/11/12 13:38:07;;;;;;;11.85;4.28;;;;;;;;;;5048913;28;20044;-69
2022/11/12 13:40:54;;;;;;;17.02;4.40;;;;;;;;;;5046850;28;20053;-69
2022/11/12 13:43:39;;;;;;;18.42;4.03;;;;;;;;;;5047240;28;20053;-70
2022/11/12 13:46:05;;;;;;;19.83;4.78;;;;;;;;;;5046556;28;20426;-67
2022/11/12 13:48:45;;;;;;;22.42;5.65;;;;;;;;;;5041793;28;20083;-71
2022/11/12 13:51:14;;;;;;;23.92;4.78;;;;;;;;;;5048060;28;20076;-67
2022/11/12 13:53:40;;;;;;;22.23;5.28;;;;;;;;;;5043024;28;20120;-65
2022/11/12 13:56:10;;;;;;;22.35;4.72;;;;;;;;;;5044045;28;20052;-67
2022/11/12 13:58:38;;;;;;;22.98;5.18;;;;;;;;;;5043033;28;20091;-67
2022/11/12 14:01:06;;;;;;;21.05;5.32;;;;;;;;;;5047090;28;20052;-67
2022/11/12 14:03:45;;;;;;;23.70;4.85;;;;;;;;;;5047379;28;20480;-67
2022/11/12 14:06:18;;;;;;;19.75;4.38;;;;;;;;;;5029491;28;20080;-67
2022/11/12 14:09:04;;;;;;;19.95;4.95;;;;;;;;;;5035628;28;20045;-70
2022/11/12 14:11:52;;;;;;;21.90;5.38;;;;;;;;;;5025917;28;20486;-66
2022/11/12 14:14:52;;;;;;;28.27;5.25;;;;;;;;;;5044445;28;20120;-67
2022/11/12 14:17:21;;;;;;;28.58;5.22;;;;;;;;;;5038458;28;20113;-66
2022/11/12 14:19:58;;;;;;;21.60;4.65;;;;;;;;;;5038485;28;20049;-67
2022/11/12 14:22:34;;;;;;;20.27;4.93;;;;;;;;;;5046393;28;20055;-66
2022/11/12 14:25:01;;;;;;;22.75;5.15;;;;;;;;;;5046014;28;20450;-66
2022/11/12 14:27:30;;;;;;;24.65;5.55;;;;;;;;;;5027033;28;20045;-68
2022/11/12 14:30:11;;;;;;;23.30;5.05;;;;;;;;;;5046410;28;20071;-68
2022/11/12 14:32:39;;;;;;;28.40;5.57;;;;;;;;;;5044907;28;20045;-67
2022/11/12 14:35:23;;;;;;;22.10;5.15;;;;;;;;;;5044655;28;20052;-66
2022/11/12 14:37:54;;;;;;;24.95;5.80;;;;;;;;;;5039566;28;20512;-67
2022/11/12 14:40:23;;;;;;;31.27;5.22;;;;;;;;;;5038926;28;20145;-66
2022/11/12 14:42:50;;;;;;;21.75;4.63;;;;;;;;;;5052387;28;20056;-67
2022/11/12 14:45:18;;;;;;;36.38;5.05;;;;;;;;;;5046281;28;20504;-70
2022/11/12 14:47:47;;;;;;;34.40;5.88;;;;;;;;;;5047634;28;20071;-70
2022/11/12 14:50:17;;;;;;;26.10;5.10;;;;;;;;;;5042685;28;20052;-68
2022/11/12 14:52:47;;;;;;;24.45;5.35;;;;;;;;;;5039074;28;20057;-68
2022/11/12 14:55:18;;;;;;;22.35;4.75;;;;;;;;;;5043954;28;20040;-68
2022/11/12 14:57:44;;;;;;;26.73;4.80;;;;;;;;;;5046403;28;20072;-66
2022/11/12 15:00:18;;;;;;;21.42;4.78;;;;;;;;;;5039883;28;20418;-65
2022/11/12 15:02:44;;;;;;;25.98;5.05;;;;;;;;;;5045789;28;20044;-69
2022/11/12 15:05:16;;;;;;;26.27;4.93;;;;;;;;;;5035787;28;20041;-67
2022/11/12 15:07:55;;;;;;;19.98;4.90;;;;;;;;;;5044588;28;20096;-68
2022/11/12 15:10:34;;;;;;;25.02;5.20;;;;;;;;;;5034919;28;20198;-66
2022/11/12 15:13:07;;;;;;;22.98;5.63;;;;;;;;;;5041731;28;20044;-67